createdAt,value
2019-03-23T00:01:35.054Z,79.07
2019-03-23T00:04:07.172Z,80.56
2019-03-23T00:06:39.446Z,81.03
2019-03-23T00:09:12.444Z,80.51
2019-03-23T00:11:44.528Z,80.37
2019-03-23T00:14:16.923Z,79.37
2019-03-23T00:16:49.004Z,79.17
2019-03-23T00:19:21.448Z,78.88
2019-03-23T00:21:53.825Z,78.82
2019-03-23T00:24:27.066Z,78.82
2019-03-23T00:26:59.525Z,79.41
2019-03-23T00:29:31.730Z,79.38
2019-03-23T00:32:04.161Z,80.75
2019-03-23T00:34:36.190Z,80.95
2019-03-23T00:37:08.890Z,79.29
2019-03-23T00:46:18.638Z,78.90
2019-03-23T00:48:50.744Z,78.78
2019-03-23T00:51:22.824Z,78.61
2019-03-23T00:53:56.088Z,78.63
2019-03-23T00:56:28.151Z,78.50
2019-03-23T00:59:00.231Z,78.87
2019-03-23T01:01:40.537Z,78.42
2019-03-23T01:04:22.101Z,78.33
2019-03-23T01:06:54.382Z,78.98
2019-03-23T01:09:26.817Z,78.60
2019-03-23T01:12:02.538Z,78.50
2019-03-23T01:14:42.646Z,78.56
2019-03-23T01:17:16.395Z,78.35
2019-03-23T01:19:58.895Z,78.48
2019-03-23T01:22:32.664Z,78.70
2019-03-23T01:25:05.212Z,78.56
2019-03-23T01:27:41.244Z,78.92
2019-03-23T01:30:13.957Z,78.60
2019-03-23T01:32:46.633Z,78.99
2019-03-23T01:35:18.703Z,79.14
2019-03-23T01:37:51.431Z,79.25
2019-03-23T01:40:24.281Z,79.08
2019-03-23T01:42:58.071Z,78.79
2019-03-23T01:45:30.498Z,78.78
2019-03-23T01:48:02.584Z,78.81
2019-03-23T01:50:35.710Z,78.65
2019-03-23T01:53:11.104Z,79.75
2019-03-23T01:55:43.533Z,79.47
2019-03-23T01:58:15.646Z,79.15
2019-03-23T02:00:47.697Z,80.77
2019-03-23T02:03:19.803Z,81.88
2019-03-23T02:05:52.086Z,81.37
2019-03-23T02:08:24.221Z,79.45
2019-03-23T02:10:56.487Z,80.33
2019-03-23T02:13:29.054Z,83.17
2019-03-23T02:16:02.155Z,83.90
2019-03-23T02:18:34.642Z,85.11
2019-03-23T02:21:06.674Z,84.74
2019-03-23T02:23:38.803Z,82.13
2019-03-23T02:26:10.863Z,81.32
2019-03-23T02:28:43.259Z,80.58
2019-03-23T02:31:15.680Z,80.38
2019-03-23T02:33:47.747Z,80.25
2019-03-23T02:36:20.027Z,80.28
2019-03-23T02:38:52.595Z,79.97
2019-03-23T02:41:24.761Z,79.80
2019-03-23T02:43:57.470Z,79.89
2019-03-23T02:46:30.277Z,80.04
2019-03-23T02:49:02.375Z,80.08
2019-03-23T02:51:35.143Z,79.98
2019-03-23T02:54:07.709Z,80.09
2019-03-23T02:56:40.773Z,80.22
2019-03-23T02:59:13.206Z,80.29
2019-03-23T03:01:45.288Z,80.38
2019-03-23T03:04:17.702Z,80.45
2019-03-23T03:06:50.099Z,80.24
2019-03-23T03:09:22.240Z,80.63
2019-03-23T03:11:54.328Z,80.48
2019-03-23T03:14:26.438Z,80.50
2019-03-23T03:16:58.915Z,80.28
2019-03-23T03:19:31.359Z,80.50
2019-03-23T03:22:03.436Z,80.29
2019-03-23T03:24:35.902Z,80.23
2019-03-23T03:27:08.322Z,82.26
2019-03-23T03:29:40.395Z,83.38
2019-03-23T03:32:12.869Z,83.75
2019-03-23T03:34:44.984Z,84.75
2019-03-23T03:37:17.381Z,84.81
2019-03-23T03:39:49.853Z,84.68
2019-03-23T03:42:22.312Z,85.01
2019-03-23T03:44:54.880Z,84.21
2019-03-23T03:47:27.328Z,84.09
2019-03-23T03:49:59.404Z,83.71
2019-03-23T03:52:31.478Z,83.07
2019-03-23T03:55:03.614Z,82.46
2019-03-23T03:57:35.684Z,82.26
2019-03-23T04:00:08.323Z,82.25
2019-03-23T04:02:40.666Z,81.89
2019-03-23T04:05:13.286Z,81.73
2019-03-23T04:07:45.380Z,81.17
2019-03-23T04:10:17.519Z,83.36
2019-03-23T04:12:50.555Z,83.94
2019-03-23T04:15:22.733Z,82.15
2019-03-23T04:17:55.231Z,82.84
2019-03-23T04:20:27.379Z,81.61
2019-03-23T04:22:59.466Z,85.03
2019-03-23T04:25:31.617Z,83.36
2019-03-23T04:28:04.029Z,87.43
2019-03-23T04:30:36.382Z,87.53
2019-03-23T04:33:09.226Z,88.41
2019-03-23T04:35:41.456Z,88.58
2019-03-23T04:38:22.509Z,88.06
2019-03-23T04:40:48.330Z,88.06
2019-03-23T04:43:20.388Z,88.26
2019-03-23T04:45:53.186Z,88.10
2019-03-23T04:48:26.131Z,87.16
2019-03-23T04:50:58.595Z,87.17
2019-03-23T04:53:30.947Z,87.07
2019-03-23T04:56:03.499Z,87.87
2019-03-23T04:58:36.273Z,87.96
2019-03-23T05:01:08.652Z,86.74
2019-03-23T05:03:40.798Z,86.97
2019-03-23T05:06:12.894Z,86.37
2019-03-23T05:08:45.029Z,85.76
2019-03-23T05:11:17.129Z,87.89
2019-03-23T05:13:49.874Z,88.47
2019-03-23T05:16:22.671Z,88.34
2019-03-23T05:18:55.170Z,87.75
2019-03-23T05:21:27.208Z,86.82
2019-03-23T05:23:59.877Z,87.83
2019-03-23T05:26:32.327Z,88.37
2019-03-23T05:29:04.778Z,86.79
2019-03-23T05:31:37.122Z,86.50
2019-03-23T05:34:09.400Z,85.22
2019-03-23T05:36:42.406Z,84.47
2019-03-23T05:39:14.608Z,84.93
2019-03-23T05:41:47.071Z,86.13
2019-03-23T05:44:19.156Z,85.39
2019-03-23T05:46:51.235Z,86.71
2019-03-23T05:49:23.378Z,87.82
2019-03-23T05:51:56.446Z,88.42
2019-03-23T05:54:29.390Z,88.53
2019-03-23T05:57:01.854Z,87.73
2019-03-23T05:59:34.258Z,87.11
2019-03-23T06:02:06.759Z,88.03
2019-03-23T06:04:39.971Z,87.39
2019-03-23T06:07:12.292Z,87.14
2019-03-23T06:09:44.713Z,86.26
2019-03-23T06:12:17.780Z,86.41
2019-03-23T06:14:51.535Z,85.39
2019-03-23T06:17:23.929Z,85.38
2019-03-23T06:19:56.376Z,85.35
2019-03-23T06:22:28.477Z,84.85
2019-03-23T06:25:00.555Z,84.98
2019-03-23T06:27:33.086Z,84.33
2019-03-23T06:30:06.026Z,85.12
2019-03-23T06:32:38.490Z,84.26
2019-03-23T06:35:11.496Z,84.49
2019-03-23T06:37:44.985Z,84.09
2019-03-23T06:40:17.126Z,83.12
2019-03-23T06:42:59.156Z,82.90
2019-03-23T06:45:24.312Z,83.83
2019-03-23T06:47:56.835Z,83.78
2019-03-23T06:50:29.284Z,83.35
2019-03-23T06:53:01.724Z,83.30
2019-03-23T06:55:34.178Z,83.13
2019-03-23T06:58:06.721Z,83.12
2019-03-23T07:00:38.814Z,83.35
2019-03-23T07:03:11.041Z,83.18
2019-03-23T07:05:43.215Z,82.27
2019-03-23T07:08:16.219Z,82.82
2019-03-23T07:10:48.383Z,83.18
2019-03-23T07:13:20.499Z,82.75
2019-03-23T07:15:52.979Z,82.78
2019-03-23T07:18:25.791Z,82.53
2019-03-23T07:20:57.918Z,83.21
2019-03-23T07:23:30.762Z,83.03
2019-03-23T07:26:02.909Z,82.25
2019-03-23T07:28:34.985Z,82.73
2019-03-23T07:31:07.139Z,82.22
2019-03-23T07:33:39.280Z,82.38
2019-03-23T07:36:11.394Z,81.75
2019-03-23T07:38:43.896Z,81.43
2019-03-23T07:41:16.055Z,81.43
2019-03-23T07:43:48.495Z,81.27
2019-03-23T07:46:20.591Z,82.33
2019-03-23T07:48:52.719Z,81.71
2019-03-23T07:51:25.203Z,81.46
2019-03-23T07:53:58.208Z,81.06
2019-03-23T07:56:30.726Z,80.63
2019-03-23T07:59:03.451Z,80.63
2019-03-23T08:01:35.884Z,80.21
2019-03-23T08:04:08.101Z,80.25
2019-03-23T08:06:40.875Z,80.82
2019-03-23T08:09:20.414Z,80.35
2019-03-23T08:11:46.799Z,80.26
2019-03-23T08:14:19.285Z,80.22
2019-03-23T08:16:51.418Z,80.25
2019-03-23T08:19:24.139Z,79.68
2019-03-23T08:21:56.516Z,80.06
2019-03-23T08:24:28.987Z,80.01
2019-03-23T08:27:01.443Z,79.42
2019-03-23T08:29:34.232Z,79.55
2019-03-23T08:32:06.297Z,79.17
2019-03-23T08:34:38.720Z,79.13
2019-03-23T08:37:11.812Z,79.05
2019-03-23T08:39:48.677Z,78.44
2019-03-23T08:42:18.401Z,78.83
2019-03-23T08:44:51.024Z,78.68
2019-03-23T08:47:23.510Z,78.16
2019-03-23T08:49:55.965Z,78.39
2019-03-23T08:52:29.026Z,78.15
2019-03-23T08:55:01.602Z,77.66
2019-03-23T08:57:33.730Z,77.75
2019-03-23T09:00:06.894Z,77.67
2019-03-23T09:02:38.969Z,77.62
2019-03-23T09:05:11.356Z,77.22
2019-03-23T09:07:43.436Z,76.90
2019-03-23T09:10:15.845Z,76.86
2019-03-23T09:12:48.074Z,76.44
2019-03-23T09:15:20.172Z,76.76
2019-03-23T09:17:52.262Z,76.51
2019-03-23T09:20:24.654Z,76.56
2019-03-23T09:22:57.398Z,76.46
2019-03-23T09:25:30.334Z,76.16
2019-03-23T09:28:02.500Z,76.07
2019-03-23T09:30:34.642Z,75.63
2019-03-23T09:33:06.743Z,75.40
2019-03-23T09:35:39.474Z,75.62
2019-03-23T09:38:11.821Z,75.76
2019-03-23T09:40:43.881Z,75.60
2019-03-23T09:43:16.368Z,75.23
2019-03-23T09:45:48.844Z,75.54
2019-03-23T09:48:21.288Z,75.28
2019-03-23T09:50:53.436Z,75.48
2019-03-23T09:53:25.529Z,75.43
2019-03-23T09:55:57.737Z,75.33
2019-03-23T09:58:29.869Z,75.18
2019-03-23T10:01:02.183Z,75.04
2019-03-23T10:03:34.605Z,75.00
2019-03-23T10:06:07.428Z,75.09
2019-03-23T10:08:39.922Z,74.90
2019-03-23T10:11:12.351Z,74.88
2019-03-23T10:13:46.152Z,75.03
2019-03-23T10:16:18.848Z,75.44
2019-03-23T10:18:51.300Z,74.99
2019-03-23T10:21:23.389Z,75.14
2019-03-23T10:23:55.884Z,74.64
2019-03-23T10:26:28.437Z,74.67
2019-03-23T10:29:01.333Z,74.27
2019-03-23T10:31:33.430Z,74.42
2019-03-23T10:34:05.534Z,74.53
2019-03-23T10:36:37.702Z,74.34
2019-03-23T10:39:09.825Z,74.12
2019-03-23T10:41:41.903Z,73.90
2019-03-23T10:44:14.409Z,73.84
2019-03-23T10:46:46.536Z,73.67
2019-03-23T10:49:18.613Z,73.88
2019-03-23T10:51:50.739Z,73.70
2019-03-23T10:54:22.813Z,73.41
2019-03-23T10:56:55.238Z,73.71
2019-03-23T10:59:28.107Z,73.82
2019-03-23T11:02:00.271Z,73.93
2019-03-23T11:04:32.762Z,73.57
2019-03-23T11:07:05.578Z,73.31
2019-03-23T11:09:38.391Z,73.26
2019-03-23T11:12:10.909Z,72.97
2019-03-23T11:14:43.755Z,73.13
2019-03-23T11:17:15.866Z,73.11
2019-03-23T11:19:48.003Z,72.73
2019-03-23T11:22:20.840Z,72.51
2019-03-23T11:24:53.301Z,72.59
2019-03-23T11:27:25.701Z,72.53
2019-03-23T11:29:57.846Z,71.97
2019-03-23T11:32:30.656Z,72.13
2019-03-23T11:35:03.116Z,72.00
2019-03-23T11:37:35.280Z,71.87
2019-03-23T11:40:07.908Z,71.97
2019-03-23T11:42:49.314Z,71.43
2019-03-23T11:45:14.606Z,71.49
2019-03-23T11:47:47.391Z,71.09
2019-03-23T11:50:19.643Z,70.99
2019-03-23T11:52:51.834Z,71.19
2019-03-23T11:55:24.269Z,71.01
2019-03-23T11:57:56.715Z,71.14
2019-03-23T12:00:28.860Z,70.93
2019-03-23T12:03:01.346Z,70.21
2019-03-23T12:05:33.714Z,70.02
2019-03-23T12:08:05.861Z,69.98
2019-03-23T12:10:38.402Z,69.43
2019-03-23T12:13:11.006Z,69.42
2019-03-23T12:15:43.191Z,69.85
2019-03-23T12:18:15.862Z,70.13
2019-03-23T12:20:48.965Z,68.40
2019-03-23T12:23:21.116Z,68.19
2019-03-23T12:25:53.755Z,68.30
2019-03-23T12:28:27.089Z,67.72
2019-03-23T12:30:59.193Z,67.82
2019-03-23T12:33:31.590Z,66.81
2019-03-23T12:36:04.620Z,66.54
2019-03-23T12:38:36.812Z,66.88
2019-03-23T12:41:18.654Z,66.80
2019-03-23T12:43:42.770Z,66.64
2019-03-23T12:46:15.202Z,66.42
2019-03-23T12:48:47.335Z,66.41
2019-03-23T12:51:19.420Z,66.71
2019-03-23T12:53:52.501Z,66.39
2019-03-23T12:56:25.086Z,65.39
2019-03-23T12:58:57.275Z,66.20
2019-03-23T13:01:29.423Z,65.11
2019-03-23T13:04:01.524Z,64.64
2019-03-23T13:06:33.647Z,64.50
2019-03-23T13:09:07.760Z,64.79
2019-03-23T13:11:39.884Z,64.66
2019-03-23T13:14:12.398Z,65.29
2019-03-23T13:16:44.869Z,64.81
2019-03-23T13:19:16.998Z,65.26
2019-03-23T13:21:49.490Z,63.57
2019-03-23T13:24:22.732Z,63.42
2019-03-23T13:26:55.252Z,62.01
2019-03-23T13:29:27.683Z,61.17
2019-03-23T13:32:00.168Z,62.31
2019-03-23T13:34:32.278Z,60.72
2019-03-23T13:37:04.790Z,60.97
2019-03-23T13:39:37.268Z,61.37
2019-03-23T13:42:09.564Z,62.61
2019-03-23T13:44:42.029Z,61.44
2019-03-23T13:47:14.524Z,62.98
2019-03-23T13:49:46.765Z,59.45
2019-03-23T13:52:18.857Z,56.33
2019-03-23T13:54:51.905Z,55.34
2019-03-23T13:57:24.716Z,59.17
2019-03-23T13:59:57.518Z,58.03
2019-03-23T14:02:30.384Z,57.60
2019-03-23T14:05:02.930Z,56.23
2019-03-23T14:07:35.148Z,55.42
2019-03-23T14:10:07.951Z,55.82
2019-03-23T14:12:40.093Z,55.18
2019-03-23T14:15:12.729Z,55.27
2019-03-23T14:17:45.497Z,56.95
2019-03-23T14:20:17.856Z,56.50
2019-03-23T14:22:50.628Z,57.21
2019-03-23T14:25:23.552Z,57.14
2019-03-23T14:27:56.049Z,58.25
2019-03-23T14:30:28.611Z,56.94
2019-03-23T14:33:00.888Z,57.24
2019-03-23T14:35:32.961Z,55.96
2019-03-23T14:38:05.432Z,57.09
2019-03-23T14:40:37.567Z,56.97
2019-03-23T14:43:10.239Z,57.67
2019-03-23T14:45:42.698Z,57.16
2019-03-23T14:48:14.935Z,60.29
2019-03-23T14:50:47.061Z,59.30
2019-03-23T14:53:19.537Z,58.17
2019-03-23T14:55:52.861Z,59.37
2019-03-23T14:58:24.963Z,60.09
2019-03-23T15:00:57.067Z,58.84
2019-03-23T15:03:29.194Z,61.07
2019-03-23T15:06:01.964Z,61.02
2019-03-23T15:08:34.470Z,61.09
2019-03-23T15:11:07.276Z,61.35
2019-03-23T15:13:39.806Z,61.10
2019-03-23T15:16:11.983Z,61.11
2019-03-23T15:18:44.516Z,61.15
2019-03-23T15:21:16.623Z,61.81
2019-03-23T15:23:49.612Z,61.35
2019-03-23T15:26:22.430Z,62.06
2019-03-23T15:28:54.520Z,61.96
2019-03-23T15:31:26.632Z,62.35
2019-03-23T15:33:58.741Z,62.57
2019-03-23T15:36:30.870Z,62.51
2019-03-23T15:39:04.606Z,62.79
2019-03-23T15:41:36.792Z,63.25
2019-03-23T15:44:11.767Z,63.25
2019-03-23T15:46:44.207Z,63.46
2019-03-23T15:49:16.347Z,63.87
2019-03-23T15:51:49.060Z,64.09
2019-03-23T15:54:21.497Z,64.20
2019-03-23T15:56:53.688Z,64.69
2019-03-23T15:59:26.565Z,64.92
2019-03-23T16:01:59.234Z,64.60
2019-03-23T16:04:31.409Z,64.91
2019-03-23T16:07:06.917Z,65.06
2019-03-23T16:09:39.051Z,65.29
2019-03-23T16:12:11.662Z,65.26
2019-03-23T16:14:44.193Z,65.56
2019-03-23T16:17:16.875Z,65.83
2019-03-23T16:19:49.650Z,66.07
2019-03-23T16:22:21.784Z,66.64
2019-03-23T16:24:54.383Z,66.82
2019-03-23T16:27:26.526Z,66.66
2019-03-23T16:29:59.426Z,66.63
2019-03-23T16:32:32.266Z,66.66
2019-03-23T16:35:05.345Z,67.03
2019-03-23T16:37:37.436Z,67.34
2019-03-23T16:40:13.462Z,67.39
2019-03-23T16:42:45.904Z,67.60
2019-03-23T16:45:18.631Z,68.00
2019-03-23T16:47:50.866Z,68.08
2019-03-23T16:50:23.028Z,68.46
2019-03-23T16:52:55.137Z,68.34
2019-03-23T16:55:27.219Z,68.70
2019-03-23T16:57:59.470Z,68.64
2019-03-23T17:00:39.129Z,69.37
2019-03-23T17:03:11.611Z,69.37
2019-03-23T17:05:43.815Z,68.88
2019-03-23T17:08:16.241Z,68.98
2019-03-23T17:10:48.383Z,69.32
2019-03-23T17:13:21.143Z,69.23
2019-03-23T17:15:53.284Z,69.09
2019-03-23T17:18:25.409Z,69.41
2019-03-23T17:20:57.614Z,69.17
2019-03-23T17:23:29.783Z,69.56
2019-03-23T17:26:01.956Z,69.46
2019-03-23T17:28:34.084Z,69.83
2019-03-23T17:31:06.216Z,70.11
2019-03-23T17:33:38.312Z,70.49
2019-03-23T17:36:10.457Z,70.86
2019-03-23T17:38:42.558Z,70.75
2019-03-23T17:41:14.642Z,70.66
2019-03-23T17:43:47.617Z,71.06
2019-03-23T17:46:20.135Z,71.04
2019-03-23T17:48:52.236Z,71.01
2019-03-23T17:51:24.501Z,70.90
2019-03-23T17:53:58.759Z,70.94
2019-03-23T17:56:31.003Z,71.61
2019-03-23T17:59:03.198Z,71.99
2019-03-23T18:01:36.004Z,71.42
2019-03-23T18:04:08.457Z,72.89
2019-03-23T18:06:41.237Z,73.71
2019-03-23T18:09:13.410Z,73.67
2019-03-23T18:11:45.506Z,74.36
2019-03-23T18:14:18.539Z,73.83
2019-03-23T18:16:50.626Z,74.32
2019-03-23T18:19:22.770Z,73.55
2019-03-23T18:21:55.310Z,73.84
2019-03-23T18:24:27.400Z,74.22
2019-03-23T18:27:01.487Z,74.84
2019-03-23T18:29:33.661Z,74.78
2019-03-23T18:32:05.781Z,74.59
2019-03-23T18:34:37.910Z,74.70
2019-03-23T18:37:10.078Z,74.58
2019-03-23T18:39:42.488Z,75.65
2019-03-23T18:42:14.585Z,73.78
2019-03-23T18:44:46.758Z,73.99
2019-03-23T18:47:19.645Z,75.58
2019-03-23T18:49:51.714Z,75.40
2019-03-23T18:52:24.190Z,74.59
2019-03-23T18:54:56.513Z,73.90
2019-03-23T18:57:28.972Z,74.60
2019-03-23T19:00:01.151Z,74.59
2019-03-23T19:02:33.530Z,75.17
2019-03-23T19:05:06.327Z,75.32
2019-03-23T19:07:38.780Z,74.90
2019-03-23T19:10:11.196Z,74.77
2019-03-23T19:12:43.648Z,74.02
2019-03-23T19:15:15.830Z,73.67
2019-03-23T19:17:47.946Z,73.74
2019-03-23T19:20:20.038Z,73.18
2019-03-23T19:22:52.245Z,73.61
2019-03-23T19:25:24.689Z,73.46
2019-03-23T19:27:56.918Z,73.41
2019-03-23T19:36:59.965Z,73.44
2019-03-23T19:39:32.867Z,74.55
2019-03-23T19:42:05.367Z,75.07
2019-03-23T19:44:38.824Z,74.58
2019-03-23T19:47:10.908Z,75.35
2019-03-23T19:49:42.995Z,75.15
2019-03-23T19:52:15.113Z,75.34
2019-03-23T19:54:47.554Z,75.00
2019-03-23T19:57:19.958Z,75.07
2019-03-23T19:59:52.285Z,74.93
2019-03-23T20:02:24.534Z,75.96
2019-03-23T20:04:56.589Z,76.06
2019-03-23T20:07:33.065Z,76.52
2019-03-23T20:10:03.604Z,76.85
2019-03-23T20:12:36.345Z,76.33
2019-03-23T20:15:09.671Z,76.74
2019-03-23T20:17:41.739Z,76.56
2019-03-23T20:20:14.686Z,76.61
2019-03-23T20:22:47.129Z,76.56
2019-03-23T20:25:19.239Z,77.42
2019-03-23T20:27:52.009Z,76.89
2019-03-23T20:30:24.615Z,76.52
2019-03-23T20:32:56.714Z,77.69
2019-03-23T20:35:28.806Z,77.86
2019-03-23T20:38:01.343Z,77.78
2019-03-23T20:40:33.798Z,78.16
2019-03-23T20:43:05.865Z,77.42
2019-03-23T20:45:37.993Z,78.37
2019-03-23T20:48:10.181Z,77.84
2019-03-23T20:50:43.364Z,78.21
2019-03-23T20:53:19.042Z,78.32
2019-03-23T20:55:51.130Z,78.27
2019-03-23T20:58:23.198Z,78.54
2019-03-23T21:00:55.645Z,78.89
2019-03-23T21:03:27.733Z,79.14
2019-03-23T21:05:59.839Z,78.78
2019-03-23T21:08:31.950Z,78.42
2019-03-23T21:11:04.218Z,78.78
2019-03-23T21:13:36.308Z,79.28
2019-03-23T21:16:08.466Z,79.02
2019-03-23T21:18:40.559Z,79.00
2019-03-23T21:21:12.911Z,79.70
2019-03-23T21:23:45.436Z,78.89
2019-03-23T21:26:17.869Z,79.31
2019-03-23T21:28:50.094Z,78.71
2019-03-23T21:31:22.613Z,78.97
2019-03-23T21:33:54.720Z,78.85
2019-03-23T21:36:26.912Z,79.45
2019-03-23T21:38:59.425Z,80.25
2019-03-23T21:41:31.510Z,79.90
2019-03-23T21:44:03.602Z,80.53
2019-03-23T21:46:35.841Z,79.73
2019-03-23T21:49:07.918Z,80.08
2019-03-23T21:51:40.452Z,79.99
2019-03-23T21:54:12.686Z,80.56
2019-03-23T21:56:45.085Z,79.69
2019-03-23T21:59:17.608Z,80.85
2019-03-23T22:01:50.032Z,80.66
2019-03-23T22:04:22.193Z,80.32
2019-03-23T22:06:54.301Z,81.29
2019-03-23T22:09:26.745Z,80.71
2019-03-23T22:11:59.822Z,81.00
2019-03-23T22:14:41.296Z,80.97
2019-03-23T22:17:06.092Z,81.32
2019-03-23T22:19:38.148Z,80.25
2019-03-23T22:22:10.240Z,79.63
2019-03-23T22:24:42.544Z,79.97
2019-03-23T22:27:14.718Z,79.56
2019-03-23T22:29:47.183Z,79.61
2019-03-23T22:32:19.276Z,79.48
2019-03-23T22:34:51.743Z,79.16
2019-03-23T22:37:23.816Z,79.53
2019-03-23T22:39:56.006Z,79.53
2019-03-23T22:42:28.232Z,79.43
2019-03-23T22:45:00.965Z,79.21
2019-03-23T22:47:33.325Z,79.91
2019-03-23T22:50:06.189Z,78.51
2019-03-23T22:52:38.387Z,79.49
2019-03-23T22:55:11.130Z,78.60
2019-03-23T22:57:43.562Z,79.07
2019-03-23T23:00:19.064Z,79.17
2019-03-23T23:02:51.540Z,78.79
2019-03-23T23:05:23.600Z,78.53
2019-03-23T23:07:55.687Z,78.36
2019-03-23T23:10:28.115Z,78.44
2019-03-23T23:13:00.562Z,78.75
2019-03-23T23:15:33.077Z,78.78
2019-03-23T23:18:05.748Z,78.62
2019-03-23T23:20:37.841Z,78.74
2019-03-23T23:23:16.472Z,78.66
2019-03-23T23:25:56.992Z,78.58
2019-03-23T23:28:34.181Z,78.31
2019-03-23T23:31:07.883Z,78.39
2019-03-23T23:33:40.361Z,78.05
2019-03-23T23:36:15.097Z,78.49
2019-03-23T23:38:52.452Z,78.94
2019-03-23T23:41:28.077Z,79.23
2019-03-23T23:44:01.323Z,79.17
2019-03-23T23:46:37.990Z,78.69
2019-03-23T23:49:11.918Z,78.68
2019-03-23T23:51:50.131Z,79.03
2019-03-23T23:54:19.766Z,78.66
2019-03-23T23:56:53.254Z,78.91
2019-03-23T23:59:27.689Z,79.26
